Nearby METAR Reports

 

KDVT - Phoenix/Deer Vly, Arizona, USA
Distance from station: SSE 14mi, 22km
Updated: 08/18/2018 5:53pm
Clear
Clear
 Wind from WSW
Wind: WSW 18 mph , 30 km/h, Gust: 24 mph , 39 km/h
Temperature: 102°F , 39°C
Dew Point: 63°F , 17°C
Humidity: 27%
Barometer: 29.84 inHg , 1010.5 hPa
Clouds: Clear
Visibility: 10 miles , 16 km
2018/08/19 00:53 KDVT 190053Z 24016G21KT 10SM CLR 39/17 A2984 RMK AO2 LTG DSNT N AND E SLP074 T03940167
KSDL - Scottsdale, Arizona, USA
Distance from station: SE 22mi, 35km
Updated: 08/18/2018 6:10pm
Mostly cloudy
Mostly cloudy
 Wind from W
Wind: W 8 mph , 13 km/h
Temperature: 102°F , 39°C
Dew Point: 59°F , 15°C
Humidity: 24%
Barometer: 29.86 inHg , 1011.2 hPa
Clouds: Mostly cloudy
Visibility: 10 miles , 16 km
Cloud details: Partly cloudy 4400 ft
Partly cloudy 6500 ft
Mostly cloudy 8000 ft
2018/08/19 01:10 KSDL 190110Z 26007KT 10SM SCT044 SCT065 BKN080 39/15 A2986 RMK AO2 T03940150
 
KGEU - Glendale, Arizona, USA
Distance from station: SSW 25mi, 41km
Updated: 08/18/2018 5:50pm
Partly cloudy
Partly cloudy
 Wind from S
Wind: S 12 mph , 19 km/h, Gust: 20 mph , 31 km/h
Temperature: 106°F , 41°C
Dew Point: 61°F , 16°C
Humidity: 23%
Barometer: 29.83 inHg , 1010.2 hPa
Clouds: Partly cloudy
Visibility: 10 miles , 16 km
Cloud details: Partly cloudy 6000 ft
Partly cloudy 10000 ft
Partly cloudy 20000 ft
2018/08/19 00:50 KGEU 190050Z 18010G17KT 10SM SCT060 SCT100 SCT200 41/16 A2983
KLUF - Luke Afb/Glendal, Arizona, USA
Distance from station: SSW 28mi, 45km
Updated: 08/18/2018 5:58pm
Clear
Clear
 Wind from SW
Wind: SW 15 mph , 24 km/h
Temperature: 104°F , 40°C
Dew Point: 61°F , 16°C
Humidity: 24%
Barometer: 29.80 inHg , 1009.1 hPa
Clouds: Clear
Visibility: 10 miles , 16 km
2018/08/19 00:58 KLUF 190058Z AUTO 22013KT 10SM CLR 40/16 A2980 RMK AO2 SLP075 T04000155 $
 
KPHX - Phoenix/Sky Hrbr, Arizona, USA
Distance from station: SSE 31mi, 51km
Updated: 08/18/2018 5:51pm
Partly cloudy
Partly cloudy
 Wind from W
Wind: W 13 mph , 20 km/h, Gust: 23 mph , 37 km/h
Temperature: 106°F , 41°C
Dew Point: 61°F , 16°C
Humidity: 23%
Barometer: 29.80 inHg , 1009.1 hPa
Clouds: Partly cloudy
Visibility: 10 miles , 16 km
Cloud details: Partly cloudy 8000 ft
Partly cloudy 25000 ft
Partly cloudy 29000 ft
2018/08/19 00:51 KPHX 190051Z 28011G20KT 10SM SCT080 SCT250 SCT290 41/16 A2980 RMK AO2 LTG DSNT N SLP068 CB DSNT N T04060156
KGYR - Goodyear Municip, Arizona, USA
Distance from station: SSW 34mi, 55km
Updated: 08/18/2018 5:47pm
Mostly cloudy
Mostly cloudy
 Wind from SW
Wind: SW 13 mph , 20 km/h
Temperature: 106°F , 41°C
Dew Point: 63°F , 17°C
Humidity: 25%
Barometer: 29.83 inHg , 1010.2 hPa
Clouds: Mostly cloudy
Visibility: 10 miles , 16 km
Cloud details: Partly cloudy 9000 ft
Partly cloudy 20000 ft
Mostly cloudy 25000 ft
2018/08/19 00:47 KGYR 190047Z 23011KT 10SM SCT090 SCT200 BKN250 41/17 A2983
 
KFFZ - Mesa/Falcon Fld, Arizona, USA
Distance from station: SE 37mi, 60km
Updated: 08/18/2018 5:47pm
Partly cloudy
Partly cloudy
 Wind from W
Wind: W 10 mph , 17 km/h
Temperature: 102°F , 39°C
Dew Point: 63°F , 17°C
Humidity: 27%
Barometer: 29.85 inHg , 1010.8 hPa
Clouds: Partly cloudy
Visibility: 40 miles , 64 km
Cloud details: Few Clouds 10000 ft
Partly cloudy 20000 ft
2018/08/19 00:47 KFFZ 190047Z 26009KT 40SM FEW100 SCT200 39/17 A2985
KBXK - Buckeye, Arizona, USA
Distance from station: SW 45mi, 72km
Updated: 08/18/2018 6:15pm
Clear
Clear
 Wind from SW
Wind: SW 10 mph , 17 km/h
Temperature: 102°F , 39°C
Dew Point: 61°F , 16°C
Humidity: 26%
Barometer: 29.81 inHg , 1009.5 hPa
Clouds: Clear
Visibility: 10 miles , 16 km
2018/08/19 01:15 KBXK 190115Z AUTO 23009KT 10SM CLR 39/16 A2981 RMK AO1
 
KIWA - Chandler/Mesa, Arizona, USA
Distance from station: SE 49mi, 78km
Updated: 08/18/2018 5:55pm
Mostly cloudy
Mostly cloudy
 Wind from W
Wind: W 15 mph , 24 km/h, Gust: 20 mph , 31 km/h
Temperature: 102°F , 39°C
Dew Point: 63°F , 17°C
Humidity: 27%
Barometer: 29.85 inHg , 1010.8 hPa
Clouds: Mostly cloudy
Visibility: 20 miles , 32 km
Cloud details: Partly cloudy 10000 ft
Mostly cloudy 15000 ft
2018/08/19 00:55 KIWA 190055Z 28013G17KT 20SM SCT100 BKN150 39/17 A2985
KPAN - Payson, Arizona, USA
Distance from station: ENE 53mi, 85km
Updated: 08/18/2018 6:15pm
Partly cloudy
Partly cloudy
 Wind from NW
Wind: NW 7 mph , 11 km/h
Temperature: 73°F , 23°C
Dew Point: 61°F , 16°C
Humidity: 65%
Barometer: 30.19 inHg , 1022.4 hPa
Clouds: Partly cloudy
Visibility: 10 miles , 16 km
Cloud details: Few Clouds 5500 ft
Few Clouds 6500 ft
Partly cloudy 8000 ft
2018/08/19 01:15 KPAN 190115Z AUTO 32006KT 10SM FEW055 FEW065 SCT080 23/16 A3019 RMK AO2
 
KPRC - Prescott, Arizona, USA
Distance from station: NNW 56mi, 90km
Updated: 08/18/2018 5:53pm
Thunderstorm rain, Mostly cloudy
Thunderstorm rain, Mostly cloudy
 Wind from SW
Wind: SW 10 mph , 17 km/h, Gust: 22 mph , 35 km/h
Temperature: 73°F , 23°C
Dew Point: 64°F , 18°C
Humidity: 74%
Barometer: 30.18 inHg , 1022 hPa
Summary: Thunderstorm Rain
Clouds: Mostly cloudy
Visibility: 10 miles , 16 km
Cloud details: Few Clouds 4300 ft
Mostly cloudy 9000 ft
Mostly cloudy 11000 ft
2018/08/19 00:53 KPRC 190053Z 23009G19KT 10SM TSRA FEW043 BKN090 BKN110 23/18 A3018 RMK AO2 LTG DSNT SE AND NW RAB29 TSB51 SLP146 OCNL LTG P0003 T02330178
KCGZ - Casa Granda, Arizona, USA
Distance from station: SSE 67mi, 109km
Updated: 08/18/2018 5:56pm
Clear
Clear
 Wind from W
Wind: W 18 mph , 30 km/h
Temperature: 102°F , 39°C
Dew Point: 57°F , 14°C
Humidity: 23%
Barometer: 29.86 inHg , 1011.2 hPa
Clouds: Clear
2018/08/19 00:56 KCGZ 190056Z AUTO 28016KT CLR 39/14 A2986 RMK AO2 SLP091 T03890144 PNO $
 
KSEZ - Sedona, Arizona, USA
Distance from station: NNE 70mi, 113km
Updated: 08/01/2018 4:55pm
NOT Current
Heavy thunderstorm, Rain, Mostly cloudy
Heavy thunderstorm, Rain, Mostly cloudy
 Wind from NE
Wind: NE 9 mph , 15 km/h
Temperature: 79°F , 26°C
Dew Point: 59°F , 15°C
Humidity: 51%
Barometer: 30.16 inHg , 1021.3 hPa
Summary: Heavy thunderstorm, Rain
Clouds: Mostly cloudy
Visibility: 3 miles , 5 km
Cloud details: Partly cloudy 3100 ft
Partly cloudy 5000 ft
Mostly cloudy 7500 ft
2018/08/01 23:55 KSEZ 012355Z AUTO 05008KT 3SM +TSRA SCT031 SCT050 BKN075 26/15 A3016 RMK AO2 LTG DSNT ALQS P0011
KGXF - Gila Bend (aaf), Arizona, USA
Distance from station: SSW 77mi, 124km
Updated: 08/18/2018 5:58pm

 Wind from W
Wind: W 14 mph , 22 km/h
2018/08/19 00:58 KGXF 190058Z AUTO 26012KT M M M M M RMK AO2 SLPNO $
 
KP08 - Coolidge Muni, Arizona, USA
Distance from station: SSE 77mi, 124km
Updated: 08/18/2018 6:15pm
Clear
Clear
 Wind from W
Wind: W 9 mph , 15 km/h
Temperature: 99°F , 37°C
Dew Point: 61°F , 16°C
Humidity: 29%
Barometer: 29.88 inHg , 1011.9 hPa
Clouds: Clear
Visibility: M 10 miles , 16 km
2018/08/19 01:15 KP08 190115Z AUTO 27008KT 10SM CLR 37/16 A2988 RMK AO2
KFLG - Flagstaff, Arizona, USA
Distance from station: NNE 91mi, 146km
Updated: 08/18/2018 6:11pm
Clear
Clear
 Wind from S
Wind: S 12 mph , 19 km/h
Temperature: 72°F , 22°C
Dew Point: 57°F , 14°C
Humidity: 61%
Barometer: 30.29 inHg , 1025.7 hPa
Clouds: Clear
Visibility: 10 miles , 16 km
2018/08/19 01:11 KFLG 190111Z 19010KT 10SM CLR 22/14 A3029 RMK AO2 WSHFT 0056 T02220139 $
 
KCMR - Williams Clark, Arizona, USA
Distance from station: N 98mi, 158km
Updated: 08/18/2018 6:15pm
Partly cloudy
Partly cloudy
 Wind from W
Wind: W 12 mph , 19 km/h
Temperature: 77°F , 25°C
Dew Point: 52°F , 11°C
Humidity: 42%
Barometer: 30.27 inHg , 1025.1 hPa
Clouds: Partly cloudy
Visibility: 10 miles , 16 km
Cloud details: Partly cloudy 7500 ft
Partly cloudy 8500 ft
2018/08/19 01:15 KCMR 190115Z AUTO 27010KT 10SM SCT075 SCT085 25/11 A3027 RMK AO2